Aspen-Gerbaz, Colorado
Current Conditions -  °F | °C
As of 11:53 PM on Saturday 25 Oct 2014 (Local Time) from KASE Reporting Station
Clear Clear  
Wind Chill: 40°   Ceiling: Unl
Heat Index: 45°   Visibility: 10mi
Dew Point: 28°   Wind: 9mph
Humidity: 52%   Direction: 170°S
Pressure: 30.23"   Gusts: NA
Location:  39.1256°N, 106.797°W
Report Text: KASE 260553Z AUTO 17008KT 10SM CLR 07/M02 A3023 RMK AO2 SLP146 T00721022 10133 20039 58000
Loading
Personal Weather Stations






























Interactive Weather Map New forecast layout! Learn more

10-Day Weather Forecast

Advertisements
Track Severe Weather on mobile